createdAt,value
2024-05-09T00:00:30.592Z,6.40
2024-05-09T00:01:26.782Z,6.50
2024-05-09T00:02:24.945Z,6.60
2024-05-09T00:03:24.768Z,7.90
2024-05-09T00:04:24.766Z,7.30
2024-05-09T00:05:24.889Z,7.10
2024-05-09T00:06:24.740Z,7.90
2024-05-09T00:07:24.728Z,6.20
2024-05-09T00:08:24.768Z,7.90
2024-05-09T00:09:24.692Z,7.00
2024-05-09T00:10:32.689Z,5.50
2024-05-09T00:11:26.820Z,5.90
2024-05-09T00:12:24.822Z,6.30
2024-05-09T00:13:24.656Z,6.80
2024-05-09T00:14:24.735Z,5.50
2024-05-09T00:15:24.625Z,7.00
2024-05-09T00:16:24.648Z,6.50
2024-05-09T00:17:24.756Z,7.60
2024-05-09T00:18:25.729Z,6.90
2024-05-09T00:19:24.784Z,6.70
2024-05-09T00:20:32.731Z,6.80
2024-05-09T00:21:25.620Z,5.90
2024-05-09T00:22:24.582Z,8.30
2024-05-09T00:23:24.597Z,7.00
2024-05-09T00:24:24.566Z,5.80
2024-05-09T00:25:24.584Z,7.60
2024-05-09T00:26:24.641Z,6.50
2024-05-09T00:27:24.539Z,6.50
2024-05-09T00:28:24.538Z,7.80
2024-05-09T00:29:24.657Z,7.60
2024-05-09T00:30:33.135Z,5.70
2024-05-09T00:31:25.511Z,5.80
2024-05-09T00:32:24.624Z,6.30
2024-05-09T00:33:24.776Z,9.10
2024-05-09T00:34:24.648Z,5.10
2024-05-09T00:35:24.687Z,6.90
2024-05-09T00:36:24.476Z,7.80
2024-05-09T00:37:24.466Z,6.50
2024-05-09T00:38:24.491Z,8.60
2024-05-09T00:39:24.482Z,7.90
2024-05-09T00:40:34.740Z,6.80
2024-05-09T00:41:26.466Z,9.00
2024-05-09T00:42:24.431Z,8.00
2024-05-09T00:43:24.418Z,7.20
2024-05-09T00:44:24.589Z,7.50
2024-05-09T00:45:24.404Z,8.50
2024-05-09T00:46:24.394Z,6.60
2024-05-09T00:47:24.778Z,9.00
2024-05-09T00:48:24.448Z,8.80
2024-05-09T00:49:24.626Z,8.40
2024-05-09T00:50:29.987Z,7.90
2024-05-09T00:51:26.366Z,7.40
2024-05-09T00:52:24.357Z,7.70
2024-05-09T00:53:24.437Z,7.70
2024-05-09T00:54:24.355Z,9.50
2024-05-09T00:55:24.328Z,7.80
2024-05-09T00:56:24.398Z,8.20
2024-05-09T00:57:24.309Z,7.50
2024-05-09T00:58:24.354Z,9.80
2024-05-09T00:59:24.392Z,10.00
2024-05-09T01:00:31.530Z,6.40
2024-05-09T01:01:26.334Z,7.90
2024-05-09T01:02:24.353Z,11.00
2024-05-09T01:03:24.642Z,7.80
2024-05-09T01:04:24.370Z,8.00
2024-05-09T01:05:24.281Z,6.50
2024-05-09T01:06:24.242Z,6.00
2024-05-09T01:07:24.265Z,5.60
2024-05-09T01:08:24.296Z,4.90
2024-05-09T01:09:24.227Z,6.20
2024-05-09T01:10:31.969Z,7.40
2024-05-09T01:11:26.384Z,8.20
2024-05-09T01:12:24.347Z,6.40
2024-05-09T01:13:24.219Z,6.50
2024-05-09T01:14:24.202Z,5.90
2024-05-09T01:15:24.181Z,5.40
2024-05-09T01:16:24.165Z,6.90
2024-05-09T01:17:24.253Z,6.50
2024-05-09T01:18:24.230Z,5.10
2024-05-09T01:19:24.282Z,6.90
2024-05-09T01:20:32.131Z,7.20
2024-05-09T01:21:25.227Z,6.90
2024-05-09T01:22:24.152Z,7.10
2024-05-09T01:23:24.141Z,8.90
2024-05-09T01:24:24.107Z,6.80
2024-05-09T01:25:24.108Z,7.20
2024-05-09T01:26:24.152Z,5.10
2024-05-09T01:27:24.106Z,6.60
2024-05-09T01:28:24.076Z,7.80
2024-05-09T01:29:24.254Z,6.70
2024-05-09T01:30:31.708Z,6.50
2024-05-09T01:31:26.082Z,7.30
2024-05-09T01:32:24.157Z,7.80
2024-05-09T01:33:24.125Z,5.10
2024-05-09T01:34:25.037Z,6.70
2024-05-09T01:35:24.197Z,6.50
2024-05-09T01:36:24.048Z,8.90
2024-05-09T01:37:24.003Z,5.60
2024-05-09T01:38:24.014Z,6.80
2024-05-09T01:39:23.985Z,6.20
2024-05-09T01:40:33.445Z,8.60
2024-05-09T01:41:50.957Z,12.80
2024-05-09T01:42:23.963Z,6.20
2024-05-09T01:43:23.964Z,8.50
2024-05-09T01:44:24.066Z,5.90
2024-05-09T01:45:23.970Z,7.90
2024-05-09T01:46:23.934Z,7.30
2024-05-09T01:47:24.092Z,7.40
2024-05-09T01:48:24.134Z,9.00
2024-05-09T01:49:24.155Z,9.20
2024-05-09T01:50:35.751Z,7.00
2024-05-09T01:51:25.891Z,9.60
2024-05-09T01:52:23.900Z,5.50
2024-05-09T01:53:23.926Z,7.90
2024-05-09T01:54:23.909Z,6.00
2024-05-09T01:55:23.902Z,7.20
2024-05-09T01:56:23.929Z,6.00
2024-05-09T01:57:23.851Z,5.80
2024-05-09T01:58:23.847Z,5.40
2024-05-09T01:59:23.904Z,5.20
2024-05-09T02:00:33.777Z,6.60
2024-05-09T02:01:25.831Z,9.30
2024-05-09T02:02:23.875Z,9.80
2024-05-09T02:03:23.921Z,8.90
2024-05-09T02:04:23.985Z,5.90
2024-05-09T02:05:23.896Z,6.10
2024-05-09T02:06:23.786Z,4.80
2024-05-09T02:07:23.778Z,8.30
2024-05-09T02:08:23.854Z,5.40
2024-05-09T02:09:23.779Z,7.50
2024-05-09T02:10:31.685Z,9.10
2024-05-09T02:11:24.805Z,11.70
2024-05-09T02:12:23.831Z,7.80
2024-05-09T02:13:23.741Z,8.20
2024-05-09T02:14:23.940Z,7.60
2024-05-09T02:15:23.705Z,8.00
2024-05-09T02:16:23.702Z,14.80
2024-05-09T02:17:23.795Z,8.20
2024-05-09T02:18:24.808Z,5.50
2024-05-09T02:19:23.975Z,10.00
2024-05-09T02:20:30.711Z,6.30
2024-05-09T02:21:25.671Z,9.70
2024-05-09T02:22:23.649Z,7.40
2024-05-09T02:23:23.720Z,7.50
2024-05-09T02:24:23.642Z,6.80
2024-05-09T02:25:23.640Z,8.90
2024-05-09T02:26:23.686Z,6.50
2024-05-09T02:27:23.625Z,5.80
2024-05-09T02:28:23.669Z,6.90
2024-05-09T02:29:23.665Z,7.40
2024-05-09T02:30:30.903Z,5.70
2024-05-09T02:31:24.599Z,8.20
2024-05-09T02:32:23.838Z,6.40
2024-05-09T02:33:23.952Z,8.70
2024-05-09T02:34:23.664Z,5.80
2024-05-09T02:35:23.690Z,7.10
2024-05-09T02:36:23.553Z,6.60
2024-05-09T02:37:23.591Z,6.80
2024-05-09T02:38:23.581Z,9.10
2024-05-09T02:39:23.518Z,6.20
2024-05-09T02:40:33.057Z,7.90
2024-05-09T02:41:25.600Z,5.20
2024-05-09T02:42:23.545Z,6.80
2024-05-09T02:43:23.502Z,8.00
2024-05-09T02:44:23.641Z,7.20
2024-05-09T02:45:23.486Z,7.60
2024-05-09T02:46:23.477Z,6.80
2024-05-09T02:47:23.671Z,9.30
2024-05-09T02:48:23.634Z,6.60
2024-05-09T02:49:23.615Z,6.40
2024-05-09T02:50:30.262Z,5.80
2024-05-09T02:51:25.450Z,8.20
2024-05-09T02:52:23.471Z,8.70
2024-05-09T02:53:23.462Z,6.90
2024-05-09T02:54:23.413Z,5.40
2024-05-09T02:55:23.416Z,9.40
2024-05-09T02:56:23.467Z,7.40
2024-05-09T02:57:23.428Z,5.90
2024-05-09T02:58:23.386Z,6.00
2024-05-09T02:59:23.436Z,7.20
2024-05-09T03:00:29.793Z,7.40
2024-05-09T03:01:24.399Z,7.70
2024-05-09T03:02:23.449Z,5.20
2024-05-09T03:03:23.799Z,8.10
2024-05-09T03:04:23.402Z,6.60
2024-05-09T03:05:23.332Z,7.60
2024-05-09T03:06:23.348Z,10.20
2024-05-09T03:07:23.335Z,7.80
2024-05-09T03:08:23.342Z,5.70
2024-05-09T03:09:23.299Z,7.60
2024-05-09T03:10:28.352Z,6.80
2024-05-09T03:11:24.381Z,6.10
2024-05-09T03:12:23.361Z,7.60
2024-05-09T03:13:23.293Z,9.00
2024-05-09T03:14:23.292Z,6.70
2024-05-09T03:15:23.289Z,7.00
2024-05-09T03:16:23.262Z,5.90
2024-05-09T03:17:23.404Z,7.70
2024-05-09T03:18:23.366Z,7.40
2024-05-09T03:19:23.269Z,8.10
2024-05-09T03:20:27.623Z,8.80
2024-05-09T03:21:25.208Z,7.60
2024-05-09T03:22:23.197Z,8.70
2024-05-09T03:23:23.240Z,6.00
2024-05-09T03:24:23.190Z,8.90
2024-05-09T03:25:23.207Z,6.10
2024-05-09T03:26:23.204Z,5.40
2024-05-09T03:27:23.163Z,6.50
2024-05-09T03:28:23.143Z,4.50
2024-05-09T03:29:23.211Z,8.50
2024-05-09T03:30:30.931Z,5.20
2024-05-09T03:31:24.142Z,6.30
2024-05-09T03:32:23.210Z,7.70
2024-05-09T03:33:23.401Z,6.70
2024-05-09T03:34:23.179Z,7.10
2024-05-09T03:35:23.205Z,6.00
2024-05-09T03:36:23.109Z,6.20
2024-05-09T03:37:23.079Z,4.50
2024-05-09T03:38:23.114Z,6.10
2024-05-09T03:39:23.151Z,4.80
2024-05-09T03:40:26.569Z,6.60
2024-05-09T03:41:25.134Z,5.10
2024-05-09T03:42:23.052Z,6.10
2024-05-09T03:43:23.053Z,5.60
2024-05-09T03:44:23.132Z,5.10
2024-05-09T03:45:23.028Z,7.50
2024-05-09T03:46:23.039Z,5.80
2024-05-09T03:47:23.164Z,5.30
2024-05-09T03:48:23.172Z,6.00
2024-05-09T03:49:23.146Z,7.50
2024-05-09T03:50:30.025Z,8.00
2024-05-09T03:51:24.971Z,5.50
2024-05-09T03:52:22.965Z,6.70
2024-05-09T03:53:23.077Z,4.50
2024-05-09T03:54:22.976Z,6.10
2024-05-09T03:55:22.958Z,6.10
2024-05-09T03:56:22.973Z,5.60
2024-05-09T03:57:22.939Z,6.10
2024-05-09T03:58:22.928Z,4.50
2024-05-09T03:59:22.955Z,7.50
2024-05-09T04:00:31.051Z,7.00
2024-05-09T04:01:23.933Z,8.60
2024-05-09T04:02:22.988Z,6.40
2024-05-09T04:03:23.159Z,9.40
2024-05-09T04:04:22.919Z,11.70
2024-05-09T04:05:22.877Z,10.80
2024-05-09T04:06:22.877Z,10.30
2024-05-09T04:07:22.847Z,23.30
2024-05-09T04:08:22.894Z,15.00
2024-05-09T04:09:22.848Z,13.20
2024-05-09T04:10:30.287Z,14.60
2024-05-09T04:11:24.887Z,16.00
2024-05-09T04:12:22.866Z,23.20
2024-05-09T04:13:22.825Z,19.20
2024-05-09T04:14:22.872Z,31.20
2024-05-09T04:15:22.816Z,23.20
2024-05-09T04:16:22.805Z,16.10
2024-05-09T04:17:22.914Z,21.30
2024-05-09T04:18:22.859Z,27.60
2024-05-09T04:19:22.920Z,13.80
2024-05-09T04:20:33.282Z,12.60
2024-05-09T04:21:24.734Z,17.20
2024-05-09T04:22:22.770Z,9.10
2024-05-09T04:23:22.777Z,8.70
2024-05-09T04:24:22.739Z,10.00
2024-05-09T04:25:22.714Z,7.10
2024-05-09T04:26:22.757Z,7.10
2024-05-09T04:27:22.722Z,5.30
2024-05-09T04:28:22.683Z,3.90
2024-05-09T04:29:22.701Z,5.90
2024-05-09T04:30:33.654Z,4.70
2024-05-09T04:31:23.674Z,7.40
2024-05-09T04:32:23.097Z,4.10
2024-05-09T04:33:23.046Z,4.90
2024-05-09T04:34:22.817Z,5.10
2024-05-09T04:35:22.700Z,4.90
2024-05-09T04:36:22.642Z,6.80
2024-05-09T04:37:22.642Z,5.90
2024-05-09T04:38:22.657Z,6.40
2024-05-09T04:39:23.608Z,5.50
2024-05-09T04:40:28.627Z,9.20
2024-05-09T04:41:24.669Z,11.00
2024-05-09T04:42:22.574Z,10.90
2024-05-09T04:43:22.555Z,10.90
2024-05-09T04:44:22.585Z,8.50
2024-05-09T04:45:22.552Z,10.30
2024-05-09T04:46:22.572Z,8.00
2024-05-09T04:47:22.659Z,9.40
2024-05-09T04:48:22.629Z,10.20
2024-05-09T04:49:22.578Z,13.00
2024-05-09T04:50:30.142Z,10.30
2024-05-09T04:51:24.516Z,17.40
2024-05-09T04:52:22.489Z,13.60
2024-05-09T04:53:22.546Z,15.40
2024-05-09T04:54:30.495Z,12.80
2024-05-09T04:55:24.498Z,21.10
2024-05-09T04:56:22.614Z,17.80
2024-05-09T04:57:22.454Z,17.00
2024-05-09T04:58:22.451Z,16.40
2024-05-09T04:59:22.479Z,16.10
2024-05-09T05:00:31.790Z,13.50
2024-05-09T05:01:23.426Z,17.90
2024-05-09T05:02:22.536Z,17.00
2024-05-09T05:03:22.770Z,22.60
2024-05-09T05:04:22.486Z,19.00
2024-05-09T05:05:22.440Z,30.70
2024-05-09T05:06:22.383Z,15.40
2024-05-09T05:07:22.377Z,17.80
2024-05-09T05:08:22.446Z,13.70
2024-05-09T05:09:22.384Z,19.10
2024-05-09T05:10:29.527Z,26.50
2024-05-09T05:11:23.550Z,14.00
2024-05-09T05:12:22.427Z,9.70
2024-05-09T05:13:23.410Z,16.20
2024-05-09T05:14:22.423Z,19.10
2024-05-09T05:15:22.322Z,13.10
2024-05-09T05:16:22.298Z,17.00
2024-05-09T05:17:22.340Z,18.60
2024-05-09T05:18:22.443Z,34.70
2024-05-09T05:19:22.399Z,28.30
2024-05-09T05:20:30.385Z,27.20
2024-05-09T05:21:23.272Z,20.30
2024-05-09T05:22:22.269Z,25.30
2024-05-09T05:23:22.385Z,25.40
2024-05-09T05:24:22.234Z,15.20
2024-05-09T05:25:22.228Z,20.30
2024-05-09T05:26:22.251Z,22.90
2024-05-09T05:27:22.210Z,23.80
2024-05-09T05:28:22.348Z,37.10
2024-05-09T05:29:22.244Z,32.00
2024-05-09T05:30:28.739Z,38.80
2024-05-09T05:31:23.215Z,42.40
2024-05-09T05:32:23.338Z,25.70
2024-05-09T05:33:22.804Z,37.70
2024-05-09T05:34:22.165Z,30.60
2024-05-09T05:35:22.161Z,17.30
2024-05-09T05:36:22.132Z,46.80
2024-05-09T05:37:22.158Z,19.40
2024-05-09T05:38:26.047Z,14.60
2024-05-09T05:39:24.113Z,10.20
2024-05-09T05:40:28.646Z,15.70
2024-05-09T05:41:24.164Z,19.70
2024-05-09T05:42:22.123Z,22.90
2024-05-09T05:43:22.092Z,20.90
2024-05-09T05:44:22.109Z,25.70
2024-05-09T05:45:22.074Z,19.50
2024-05-09T05:46:23.058Z,16.80
2024-05-09T05:47:23.175Z,20.10
2024-05-09T05:48:22.278Z,26.30
2024-05-09T05:49:22.198Z,33.10
2024-05-09T05:50:28.029Z,21.60
2024-05-09T05:51:24.049Z,20.40
2024-05-09T05:52:22.033Z,24.70
2024-05-09T05:53:22.067Z,40.10
2024-05-09T05:54:21.996Z,19.50
2024-05-09T05:55:21.988Z,27.00
2024-05-09T05:56:22.062Z,15.00
2024-05-09T05:57:22.008Z,30.00
2024-05-09T05:58:21.961Z,19.60
2024-05-09T05:59:21.986Z,37.10
2024-05-09T06:00:29.540Z,23.10
2024-05-09T06:01:23.994Z,20.40
2024-05-09T06:02:22.054Z,19.10
2024-05-09T06:03:22.178Z,12.80
2024-05-09T06:04:22.006Z,19.20
2024-05-09T06:05:22.216Z,20.10
2024-05-09T06:06:21.921Z,13.30
2024-05-09T06:07:22.020Z,20.20
2024-05-09T06:08:21.970Z,17.80
2024-05-09T06:09:21.910Z,10.90
2024-05-09T06:10:26.266Z,10.10
2024-05-09T06:11:22.974Z,15.80
2024-05-09T06:12:21.958Z,15.00
2024-05-09T06:13:21.844Z,11.80
2024-05-09T06:14:21.883Z,20.40
2024-05-09T06:15:21.949Z,21.30
2024-05-09T06:16:21.837Z,17.60
2024-05-09T06:17:21.963Z,15.30
2024-05-09T06:18:22.102Z,23.20
2024-05-09T06:19:22.032Z,27.70
2024-05-09T06:20:27.826Z,25.70
2024-05-09T06:21:23.864Z,20.40
2024-05-09T06:22:21.776Z,33.40
2024-05-09T06:23:21.821Z,20.30
2024-05-09T06:24:21.771Z,13.70
2024-05-09T06:25:21.769Z,11.90
2024-05-09T06:26:21.805Z,7.40
2024-05-09T06:27:21.727Z,9.10
2024-05-09T06:28:21.721Z,6.80
2024-05-09T06:29:21.796Z,6.80
2024-05-09T06:30:29.909Z,5.60
2024-05-09T06:31:22.695Z,5.60
2024-05-09T06:32:21.903Z,6.00
2024-05-09T06:33:21.853Z,9.70
2024-05-09T06:34:21.817Z,12.40
2024-05-09T06:35:21.756Z,9.10
2024-05-09T06:36:21.676Z,12.80
2024-05-09T06:37:21.658Z,9.20
2024-05-09T06:38:21.698Z,11.10
2024-05-09T06:39:21.669Z,9.50
2024-05-09T06:40:25.853Z,6.20
2024-05-09T06:41:23.700Z,10.40
2024-05-09T06:42:21.627Z,18.40
2024-05-09T06:43:21.619Z,11.60
2024-05-09T06:44:21.641Z,9.40
2024-05-09T06:45:21.589Z,13.10
2024-05-09T06:46:21.609Z,6.30
2024-05-09T06:47:21.697Z,3.90
2024-05-09T06:48:22.276Z,6.80
2024-05-09T06:49:21.711Z,5.60
2024-05-09T06:50:24.235Z,4.10
2024-05-09T06:51:23.606Z,4.00
2024-05-09T06:52:21.570Z,3.60
2024-05-09T06:53:21.704Z,5.30
2024-05-09T06:54:21.531Z,4.40
2024-05-09T06:55:21.557Z,4.60
2024-05-09T06:56:21.521Z,5.90
2024-05-09T06:57:21.507Z,10.80
2024-05-09T06:58:21.515Z,3.20
2024-05-09T07:00:27.731Z,3.20
2024-05-09T07:01:23.497Z,5.20
2024-05-09T07:02:21.605Z,2.80
2024-05-09T07:03:21.623Z,4.40
2024-05-09T07:04:21.589Z,3.20
2024-05-09T07:05:21.576Z,3.60
2024-05-09T07:06:21.430Z,4.80
2024-05-09T07:07:21.446Z,4.60
2024-05-09T07:08:21.480Z,5.10
2024-05-09T07:09:22.407Z,3.60
2024-05-09T07:10:28.678Z,3.80
2024-05-09T07:11:23.449Z,3.10
2024-05-09T07:12:21.480Z,3.10
2024-05-09T07:13:21.395Z,5.10
2024-05-09T07:14:21.412Z,2.70
2024-05-09T07:15:21.377Z,2.50
2024-05-09T07:16:21.356Z,2.60
2024-05-09T07:17:21.473Z,2.80
2024-05-09T07:18:21.526Z,2.40
2024-05-09T07:19:21.401Z,2.60
2024-05-09T07:20:31.391Z,2.60
2024-05-09T07:21:22.374Z,2.10
2024-05-09T07:22:21.379Z,3.20
2024-05-09T07:23:21.367Z,2.30
2024-05-09T07:24:21.290Z,2.20
2024-05-09T07:25:21.314Z,2.70
2024-05-09T07:26:21.354Z,2.10
2024-05-09T07:27:21.276Z,2.40
2024-05-09T07:28:21.342Z,2.60
2024-05-09T07:29:21.285Z,2.30
2024-05-09T07:30:27.551Z,2.20
2024-05-09T07:31:23.286Z,2.90
2024-05-09T07:32:21.345Z,2.10
2024-05-09T07:33:22.868Z,2.00
2024-05-09T07:34:21.526Z,3.70
2024-05-09T07:35:21.267Z,2.30
2024-05-09T07:36:21.229Z,2.00
2024-05-09T07:37:21.210Z,3.30
2024-05-09T07:38:21.262Z,2.10
2024-05-09T07:39:21.207Z,2.70
2024-05-09T07:40:29.048Z,2.20
2024-05-09T07:41:48.839Z,3.20
2024-05-09T07:42:21.171Z,2.40
2024-05-09T07:43:21.191Z,3.50
2024-05-09T07:44:21.176Z,2.30
2024-05-09T07:45:40.120Z,2.40
2024-05-09T07:47:17.292Z,2.00
2024-05-09T07:48:32.135Z,2.50
2024-05-09T07:53:30.307Z,2.80
2024-05-09T07:53:39.533Z,2.60
2024-05-09T07:54:22.250Z,2.90
2024-05-09T07:55:21.203Z,2.30
2024-05-09T07:56:22.857Z,3.70
2024-05-09T07:57:21.157Z,2.90
2024-05-09T07:58:21.055Z,2.80
2024-05-09T07:59:21.077Z,3.10
2024-05-09T08:00:29.490Z,2.40
2024-05-09T08:01:22.309Z,2.20
2024-05-09T08:02:21.272Z,2.20
2024-05-09T08:03:21.212Z,2.20
2024-05-09T08:04:22.433Z,2.30
2024-05-09T08:05:21.100Z,4.10
2024-05-09T08:06:21.000Z,2.20
2024-05-09T08:07:21.027Z,3.80
2024-05-09T08:08:21.021Z,2.50
2024-05-09T08:09:21.533Z,2.10
2024-05-09T08:10:24.544Z,2.60
2024-05-09T08:11:22.983Z,2.60
2024-05-09T08:12:20.964Z,2.80
2024-05-09T08:13:21.121Z,4.60
2024-05-09T08:14:20.968Z,4.30
2024-05-09T08:15:20.946Z,4.80
2024-05-09T08:16:21.172Z,5.00
2024-05-09T08:17:21.022Z,3.20
2024-05-09T08:18:21.038Z,4.10
2024-05-09T08:19:21.010Z,4.50
2024-05-09T08:20:30.133Z,11.70
2024-05-09T08:21:22.931Z,4.10
2024-05-09T08:22:20.949Z,5.80
2024-05-09T08:23:20.931Z,2.90
2024-05-09T08:24:20.888Z,4.70
2024-05-09T08:25:20.919Z,2.90
2024-05-09T08:26:20.877Z,4.20
2024-05-09T08:27:20.893Z,4.10
2024-05-09T08:28:21.025Z,3.50
2024-05-09T08:29:20.866Z,4.80
2024-05-09T08:30:25.461Z,4.40
2024-05-09T08:31:22.987Z,3.40
2024-05-09T08:32:20.899Z,6.00
2024-05-09T08:33:21.017Z,2.70
2024-05-09T08:34:20.982Z,2.60
2024-05-09T08:35:20.821Z,5.10
2024-05-09T08:36:20.812Z,2.90
2024-05-09T08:37:23.475Z,2.70
2024-05-09T08:38:22.805Z,3.50
2024-05-09T08:39:20.797Z,2.80
2024-05-09T08:40:30.448Z,2.90
2024-05-09T08:41:21.775Z,3.10
2024-05-09T08:42:20.847Z,3.40
2024-05-09T08:43:20.834Z,3.50
2024-05-09T08:44:20.754Z,2.40
2024-05-09T08:45:20.760Z,4.00
2024-05-09T08:46:21.141Z,3.60
2024-05-09T08:47:20.931Z,2.70
2024-05-09T08:48:20.887Z,3.80
2024-05-09T08:49:20.834Z,3.70
2024-05-09T08:50:29.230Z,4.40
2024-05-09T08:51:21.750Z,3.30
2024-05-09T08:52:20.704Z,4.40
2024-05-09T08:53:20.698Z,3.00
2024-05-09T08:54:20.695Z,3.60
2024-05-09T08:55:20.721Z,3.20
2024-05-09T08:56:20.708Z,2.20
2024-05-09T08:57:20.688Z,2.60
2024-05-09T08:58:20.830Z,2.20
2024-05-09T08:59:20.680Z,2.20
2024-05-09T09:00:29.600Z,3.60
2024-05-09T09:01:22.854Z,3.30
2024-05-09T09:02:20.827Z,3.40
2024-05-09T09:03:20.770Z,3.10
2024-05-09T09:04:20.797Z,3.30
2024-05-09T09:05:20.755Z,4.30
2024-05-09T09:06:20.636Z,2.60
2024-05-09T09:07:20.687Z,3.60
2024-05-09T09:08:20.622Z,4.00
2024-05-09T09:09:20.614Z,4.50
2024-05-09T09:10:29.153Z,3.00
2024-05-09T09:11:22.616Z,2.40
2024-05-09T09:12:20.610Z,3.80
2024-05-09T09:13:20.633Z,2.90
2024-05-09T09:14:20.611Z,1.90
2024-05-09T09:15:20.593Z,4.50
2024-05-09T09:16:20.727Z,2.30
2024-05-09T09:17:20.565Z,3.10
2024-05-09T09:18:20.790Z,3.90
2024-05-09T09:19:20.773Z,3.60
2024-05-09T09:20:26.381Z,2.70
2024-05-09T09:21:22.524Z,4.90
2024-05-09T09:22:20.549Z,2.60
2024-05-09T09:23:20.523Z,2.40
2024-05-09T09:24:20.525Z,2.70
2024-05-09T09:25:20.509Z,3.80
2024-05-09T09:26:20.508Z,4.40
2024-05-09T09:27:20.501Z,2.30
2024-05-09T09:28:20.516Z,4.60
2024-05-09T09:29:20.502Z,4.90
2024-05-09T09:30:31.828Z,3.60
2024-05-09T09:31:22.480Z,1.60
2024-05-09T09:32:20.474Z,3.80
2024-05-09T09:33:20.593Z,3.70
2024-05-09T09:34:20.518Z,3.40
2024-05-09T09:35:20.426Z,2.50
2024-05-09T09:36:20.420Z,2.00
2024-05-09T09:37:20.429Z,4.20
2024-05-09T09:38:20.427Z,3.80
2024-05-09T09:39:20.407Z,3.60
2024-05-09T09:40:22.351Z,3.60
2024-05-09T09:41:22.378Z,2.80
2024-05-09T09:42:20.391Z,4.40
2024-05-09T09:43:20.514Z,3.30
2024-05-09T09:44:20.358Z,2.30
2024-05-09T09:45:20.361Z,2.80
2024-05-09T09:46:20.422Z,2.80
2024-05-09T09:47:20.420Z,2.30
2024-05-09T09:48:20.571Z,3.50
2024-05-09T09:49:20.360Z,6.00
2024-05-09T09:50:27.098Z,3.60
2024-05-09T09:51:22.320Z,2.20
2024-05-09T09:52:20.453Z,3.60
2024-05-09T09:53:20.384Z,4.80
2024-05-09T09:54:20.298Z,2.10
2024-05-09T09:55:20.324Z,4.30
2024-05-09T09:56:20.311Z,3.10
2024-05-09T09:57:20.359Z,3.60
2024-05-09T09:58:20.372Z,5.20
2024-05-09T09:59:20.257Z,2.40
2024-05-09T10:00:26.809Z,4.20
2024-05-09T10:01:22.373Z,2.60
2024-05-09T10:02:20.392Z,4.00
2024-05-09T10:03:20.364Z,3.40
2024-05-09T10:04:20.366Z,3.50
2024-05-09T10:05:20.301Z,3.90
2024-05-09T10:06:20.201Z,2.70
2024-05-09T10:07:20.267Z,2.40
2024-05-09T10:08:20.180Z,5.00
2024-05-09T10:09:20.168Z,3.20
2024-05-09T10:10:27.056Z,4.00
2024-05-09T10:11:22.371Z,3.70
2024-05-09T10:12:20.230Z,4.40
2024-05-09T10:13:20.274Z,4.60
2024-05-09T10:14:20.146Z,4.20
2024-05-09T10:15:20.149Z,2.10
2024-05-09T10:16:20.265Z,4.30
2024-05-09T10:17:20.210Z,4.10
2024-05-09T10:18:20.252Z,3.80
2024-05-09T10:19:20.144Z,3.60
2024-05-09T10:20:24.689Z,4.40
2024-05-09T10:21:22.102Z,2.10
2024-05-09T10:22:20.174Z,4.60
2024-05-09T10:23:20.063Z,3.60
2024-05-09T10:24:20.055Z,2.80
2024-05-09T10:25:20.086Z,3.50
2024-05-09T10:26:20.062Z,4.10
2024-05-09T10:27:20.036Z,3.30
2024-05-09T10:28:20.059Z,4.10
2024-05-09T10:29:20.036Z,2.20
2024-05-09T10:30:26.108Z,2.30
2024-05-09T10:31:22.068Z,1.80
2024-05-09T10:32:20.074Z,2.80
2024-05-09T10:33:20.123Z,3.60
2024-05-09T10:34:20.389Z,1.50
2024-05-09T10:35:19.998Z,1.80
2024-05-09T10:36:19.961Z,2.20
2024-05-09T10:37:20.130Z,2.50
2024-05-09T10:38:19.950Z,4.20
2024-05-09T10:39:19.940Z,4.10
2024-05-09T10:40:26.004Z,3.70
2024-05-09T10:41:21.920Z,2.50
2024-05-09T10:42:19.976Z,1.40
2024-05-09T10:43:20.116Z,2.10
2024-05-09T10:44:19.942Z,2.40
2024-05-09T10:45:19.965Z,7.30
2024-05-09T10:46:20.388Z,2.80
2024-05-09T10:47:19.916Z,1.80
2024-05-09T10:48:19.944Z,3.20
2024-05-09T10:49:19.997Z,2.80
2024-05-09T10:50:25.749Z,3.40
2024-05-09T10:51:21.885Z,1.90
2024-05-09T10:52:19.893Z,2.20
2024-05-09T10:53:19.837Z,2.60
2024-05-09T10:54:19.857Z,3.60
2024-05-09T10:55:19.988Z,4.40
2024-05-09T10:56:19.813Z,1.90
2024-05-09T10:57:19.809Z,2.50
2024-05-09T10:58:19.908Z,1.50
2024-05-09T10:59:19.822Z,2.50
2024-05-09T11:00:27.514Z,3.60
2024-05-09T11:01:20.874Z,2.20
2024-05-09T11:02:19.884Z,2.50
2024-05-09T11:03:19.830Z,2.20
2024-05-09T11:04:19.848Z,2.90
2024-05-09T11:05:19.923Z,2.40
2024-05-09T11:06:19.737Z,2.10
2024-05-09T11:07:19.825Z,4.00
2024-05-09T11:08:19.747Z,1.60
2024-05-09T11:09:19.714Z,1.60
2024-05-09T11:10:27.126Z,2.30
2024-05-09T11:11:21.778Z,3.30
2024-05-09T11:12:22.788Z,3.20
2024-05-09T11:13:20.743Z,1.50
2024-05-09T11:14:19.677Z,2.70
2024-05-09T11:15:19.686Z,3.40
2024-05-09T11:16:20.170Z,0.90
2024-05-09T11:17:19.756Z,2.80
2024-05-09T11:18:20.988Z,2.30
2024-05-09T11:19:19.948Z,1.80
2024-05-09T11:20:26.696Z,1.10
2024-05-09T11:21:21.669Z,2.00
2024-05-09T11:22:19.719Z,1.90
2024-05-09T11:23:19.634Z,1.70
2024-05-09T11:24:19.605Z,2.60
2024-05-09T11:25:19.745Z,2.90
2024-05-09T11:26:19.611Z,1.70
2024-05-09T11:27:19.582Z,2.40
2024-05-09T11:28:19.611Z,1.90
2024-05-09T11:29:19.936Z,1.90
2024-05-09T11:30:26.554Z,2.70
2024-05-09T11:31:21.752Z,3.30
2024-05-09T11:32:19.603Z,2.10
2024-05-09T11:33:19.760Z,2.40
2024-05-09T11:34:19.652Z,2.20
2024-05-09T11:35:19.517Z,3.10
2024-05-09T11:36:19.522Z,2.50
2024-05-09T11:37:19.645Z,4.00
2024-05-09T11:38:19.500Z,3.70
2024-05-09T11:39:19.494Z,2.80
2024-05-09T11:40:25.410Z,4.00
2024-05-09T11:41:21.485Z,1.30
2024-05-09T11:42:19.531Z,1.90
2024-05-09T11:43:19.662Z,3.40
2024-05-09T11:44:19.458Z,1.60
2024-05-09T11:45:19.444Z,2.60
2024-05-09T11:46:19.536Z,2.20
2024-05-09T11:47:19.458Z,1.40
2024-05-09T11:48:19.709Z,2.30
2024-05-09T11:49:19.565Z,2.80
2024-05-09T11:50:27.012Z,2.70
2024-05-09T11:51:21.432Z,2.80
2024-05-09T11:52:19.452Z,2.80
2024-05-09T11:53:19.416Z,2.30
2024-05-09T11:54:19.394Z,1.90
2024-05-09T11:55:19.445Z,0.90
2024-05-09T11:56:19.409Z,2.50
2024-05-09T11:57:19.361Z,1.30
2024-05-09T11:58:19.638Z,2.30
2024-05-09T11:59:19.339Z,1.60
2024-05-09T12:00:29.059Z,1.80
2024-05-09T12:01:23.141Z,1.50
2024-05-09T12:02:20.533Z,1.50
2024-05-09T12:03:19.458Z,3.00
2024-05-09T12:04:19.518Z,2.70
2024-05-09T12:05:19.637Z,2.30
2024-05-09T12:06:19.283Z,1.80
2024-05-09T12:07:19.411Z,3.30
2024-05-09T12:08:19.265Z,4.50
2024-05-09T12:09:19.284Z,1.00
2024-05-09T12:10:22.495Z,0.80
2024-05-09T12:11:21.339Z,0.90
2024-05-09T12:12:19.249Z,0.80
2024-05-09T12:13:19.412Z,1.20
2024-05-09T12:14:19.220Z,0.80
2024-05-09T12:15:19.240Z,3.80
2024-05-09T12:16:19.366Z,2.00
2024-05-09T12:17:19.271Z,1.20
2024-05-09T12:18:19.222Z,1.80
2024-05-09T12:19:19.321Z,2.60
2024-05-09T12:20:25.837Z,1.50
2024-05-09T12:21:21.176Z,2.20
2024-05-09T12:22:19.276Z,3.50
2024-05-09T12:23:19.178Z,1.90
2024-05-09T12:24:19.173Z,1.30
2024-05-09T12:25:19.258Z,2.50
2024-05-09T12:26:19.136Z,2.60
2024-05-09T12:27:19.152Z,1.40
2024-05-09T12:28:19.155Z,1.40
2024-05-09T12:29:19.150Z,1.80
2024-05-09T12:30:32.094Z,0.70
2024-05-09T12:31:21.155Z,2.80
2024-05-09T12:32:19.183Z,2.50
2024-05-09T12:33:19.171Z,1.30
2024-05-09T12:34:19.117Z,1.30
2024-05-09T12:35:19.066Z,2.10
2024-05-09T12:36:19.066Z,1.40
2024-05-09T12:37:19.158Z,1.50
2024-05-09T12:38:19.066Z,0.90
2024-05-09T12:39:19.135Z,1.70
2024-05-09T12:40:26.752Z,2.10
2024-05-09T12:41:20.019Z,2.20
2024-05-09T12:42:26.766Z,1.60
2024-05-09T12:43:21.057Z,1.90
2024-05-09T12:44:19.002Z,1.50
2024-05-09T12:45:18.986Z,2.90
2024-05-09T12:46:19.037Z,0.80
2024-05-09T12:47:19.001Z,1.00
2024-05-09T12:48:19.175Z,1.40
2024-05-09T12:49:20.076Z,1.00
2024-05-09T12:50:29.109Z,1.80
2024-05-09T12:51:20.940Z,1.00
2024-05-09T12:52:18.972Z,0.90
2024-05-09T12:53:19.005Z,1.60
2024-05-09T12:54:18.933Z,0.60
2024-05-09T12:55:19.040Z,1.30
2024-05-09T12:56:18.910Z,0.90
2024-05-09T12:57:19.935Z,1.10
2024-05-09T12:58:19.155Z,2.70
2024-05-09T12:59:18.889Z,1.60
2024-05-09T13:00:24.085Z,2.50
2024-05-09T13:01:20.948Z,1.00
2024-05-09T13:02:19.103Z,2.60
2024-05-09T13:03:19.019Z,1.90
2024-05-09T13:04:19.198Z,2.20
2024-05-09T13:05:18.929Z,1.20
2024-05-09T13:06:18.859Z,1.40
2024-05-09T13:07:18.901Z,0.90
2024-05-09T13:08:18.816Z,1.90
2024-05-09T13:09:18.852Z,1.10
2024-05-09T13:10:28.697Z,2.20
2024-05-09T13:11:20.853Z,1.60
2024-05-09T13:12:19.317Z,1.50
2024-05-09T13:13:18.820Z,2.80
2024-05-09T13:14:18.771Z,0.60
2024-05-09T13:15:18.760Z,1.70
2024-05-09T13:16:18.996Z,3.30
2024-05-09T13:17:18.806Z,1.80
2024-05-09T13:18:18.796Z,2.70